Time;durP1;ratioP1;P1;durP2;ratioP2;P2;SDS_P1;SDS_P2;PMS_P1;PMS_P2;Temp;Humidity;BMP_temperature;BMP_pressure;BME280_temperature;BME280_humidity;BME280_pressure;Samples;Min_cycle;Max_cycle;Signal;HPM_P1;HPM_P2
2024/03/01 00:00:07;;;;;;;19.17;8.93;;;5.10;99.90;;;;;;2077682;28;20181;-73
2024/03/01 00:01:09;;;;;;;19.60;9.70;;;5.10;99.90;;;;;;2078079;28;20323;-74
2024/03/01 00:02:10;;;;;;;13.85;8.98;;;5.10;99.90;;;;;;2081281;28;20276;-73
2024/03/01 00:03:11;;;;;;;18.05;8.27;;;5.10;99.90;;;;;;2077632;28;20312;-74
2024/03/01 00:04:12;;;;;;;15.37;9.40;;;5.10;99.90;;;;;;2076311;28;20224;-74
2024/03/01 00:05:12;;;;;;;16.93;9.10;;;5.20;99.90;;;;;;2075358;28;20345;-73
2024/03/01 00:06:14;;;;;;;18.93;9.43;;;5.20;99.90;;;;;;2071700;28;20265;-74
2024/03/01 00:07:15;;;;;;;18.92;10.65;;;5.20;99.90;;;;;;2078563;28;20280;-74
2024/03/01 00:08:15;;;;;;;18.90;10.25;;;5.20;99.90;;;;;;2075480;28;20275;-74
2024/03/01 00:09:16;;;;;;;20.47;10.50;;;5.20;99.90;;;;;;2075063;28;20386;-74
2024/03/01 00:10:17;;;;;;;15.60;9.60;;;5.30;99.90;;;;;;2066458;28;20289;-74
2024/03/01 00:11:17;;;;;;;19.50;10.37;;;5.30;99.90;;;;;;2071835;28;20232;-74
2024/03/01 00:12:18;;;;;;;14.17;8.73;;;5.30;99.90;;;;;;2074654;28;20224;-74
2024/03/01 00:13:19;;;;;;;20.40;10.27;;;5.30;99.90;;;;;;2074167;28;20229;-73
2024/03/01 00:14:20;;;;;;;20.73;11.73;;;5.40;99.90;;;;;;2082127;28;20229;-74
2024/03/01 00:15:21;;;;;;;17.08;8.48;;;5.40;99.90;;;;;;2080876;28;20274;-75
2024/03/01 00:16:21;;;;;;;15.93;9.23;;;5.40;99.90;;;;;;2073549;28;20234;-74
2024/03/01 00:17:22;;;;;;;16.53;8.80;;;5.30;99.90;;;;;;2062212;28;20289;-74
2024/03/01 00:18:23;;;;;;;16.33;9.43;;;5.30;99.90;;;;;;2060375;28;20718;-74
2024/03/01 00:19:24;;;;;;;18.90;9.85;;;5.40;99.90;;;;;;2071140;28;20357;-74
2024/03/01 00:20:25;;;;;;;21.10;10.10;;;5.40;99.90;;;;;;2077454;28;20251;-74
2024/03/01 00:21:26;;;;;;;18.03;8.90;;;5.50;99.90;;;;;;2082969;28;20228;-73
2024/03/01 00:22:27;;;;;;;17.67;9.35;;;5.50;99.90;;;;;;2078977;28;20230;-73
2024/03/01 00:23:28;;;;;;;20.07;10.87;;;5.50;99.90;;;;;;2084743;28;20223;-74
2024/03/01 00:24:28;;;;;;;16.00;9.43;;;5.50;99.90;;;;;;2063925;28;20736;-73
2024/03/01 00:25:29;;;;;;;16.77;9.47;;;5.50;99.90;;;;;;2078166;28;20229;-74
2024/03/01 00:26:30;;;;;;;19.50;9.73;;;5.50;99.90;;;;;;2082441;28;20228;-74
2024/03/01 00:27:30;;;;;;;18.50;11.23;;;5.50;99.90;;;;;;2072133;28;20233;-74
2024/03/01 00:28:31;;;;;;;15.53;9.27;;;5.50;99.90;;;;;;2074633;28;20233;-74
2024/03/01 00:29:32;;;;;;;20.10;10.33;;;5.40;99.90;;;;;;2067249;28;20236;-74
2024/03/01 00:30:32;;;;;;;17.27;9.20;;;5.30;99.90;;;;;;2069928;28;20225;-74
2024/03/01 00:31:33;;;;;;;16.27;10.27;;;5.20;99.90;;;;;;2073733;28;20237;-73
2024/03/01 00:32:34;;;;;;;19.23;10.63;;;5.10;99.90;;;;;;2069541;28;20688;-74
2024/03/01 00:33:35;;;;;;;16.30;9.87;;;5.10;99.90;;;;;;2087342;28;20231;-74
2024/03/01 00:34:36;;;;;;;18.60;9.50;;;5.00;99.90;;;;;;2082383;28;21003;-73
2024/03/01 00:35:36;;;;;;;18.17;10.32;;;5.10;99.90;;;;;;2072338;28;20229;-74
2024/03/01 00:36:37;;;;;;;18.40;9.33;;;5.10;99.90;;;;;;2072720;28;20252;-73
2024/03/01 00:37:38;;;;;;;16.13;8.80;;;5.20;99.90;;;;;;2070774;28;20228;-73
2024/03/01 00:38:39;;;;;;;16.43;9.30;;;5.30;99.90;;;;;;2070280;28;20750;-74
2024/03/01 00:39:39;;;;;;;19.87;11.30;;;5.30;99.90;;;;;;2074262;28;20255;-74
2024/03/01 00:40:40;;;;;;;19.47;9.77;;;5.30;99.90;;;;;;2082132;28;20724;-74
2024/03/01 00:41:41;;;;;;;20.47;10.33;;;5.30;99.90;;;;;;2073609;28;20505;-74
2024/03/01 00:42:42;;;;;;;24.73;9.83;;;5.30;99.90;;;;;;2072638;28;20516;-73
2024/03/01 00:43:42;;;;;;;14.77;8.10;;;5.30;99.90;;;;;;2070584;28;20692;-74
2024/03/01 00:44:43;;;;;;;16.20;8.93;;;5.30;99.90;;;;;;2062491;28;20623;-74
2024/03/01 00:45:44;;;;;;;19.63;9.90;;;5.30;99.90;;;;;;2057014;28;20229;-74
2024/03/01 00:46:44;;;;;;;21.17;9.80;;;5.30;99.90;;;;;;2061794;28;20228;-74
2024/03/01 00:47:50;;;;;;;16.77;8.50;;;5.30;99.90;;;;;;2065742;28;20217;-74
2024/03/01 00:48:53;;;;;;;14.15;8.10;;;5.40;99.90;;;;;;2061573;28;20221;-73
2024/03/01 00:49:54;;;;;;;19.00;9.25;;;5.40;99.90;;;;;;2074871;28;20178;-73
2024/03/01 00:50:55;;;;;;;16.23;8.63;;;5.50;99.90;;;;;;2091385;28;20184;-74
2024/03/01 00:51:55;;;;;;;16.67;9.67;;;5.60;99.90;;;;;;2089206;28;20185;-74
2024/03/01 00:52:56;;;;;;;14.80;7.83;;;5.50;99.90;;;;;;2089135;28;20184;-73
2024/03/01 00:53:58;;;;;;;16.17;9.13;;;5.50;99.90;;;;;;2078276;28;20178;-73
2024/03/01 00:54:59;;;;;;;17.63;10.00;;;5.50;99.90;;;;;;2079324;28;20855;-74
2024/03/01 00:56:00;;;;;;;19.30;10.97;;;5.50;99.90;;;;;;2084478;28;20180;-73
2024/03/01 00:57:01;;;;;;;21.67;9.20;;;5.50;99.90;;;;;;2074150;28;20181;-73
2024/03/01 00:58:02;;;;;;;16.77;9.00;;;5.40;99.90;;;;;;2084580;28;20954;-73
2024/03/01 00:59:02;;;;;;;17.37;9.13;;;5.30;99.90;;;;;;2076251;28;20200;-73
2024/03/01 01:00:06;;;;;;;15.97;9.40;;;5.30;99.90;;;;;;2068463;28;20277;-73
2024/03/01 01:01:07;;;;;;;19.00;8.45;;;5.30;99.90;;;;;;2077454;28;20192;-73
2024/03/01 01:02:08;;;;;;;19.23;8.47;;;5.30;99.90;;;;;;2088465;28;20790;-73
2024/03/01 01:03:09;;;;;;;18.48;9.57;;;5.20;99.90;;;;;;2089461;28;20223;-73
2024/03/01 01:04:10;;;;;;;21.90;9.20;;;5.30;99.90;;;;;;2091471;28;20227;-73
2024/03/01 01:05:11;;;;;;;17.30;9.87;;;5.40;99.90;;;;;;2091299;28;20498;-73
2024/03/01 01:06:12;;;;;;;15.63;8.98;;;5.40;99.90;;;;;;2086495;28;20281;-73
2024/03/01 01:07:13;;;;;;;20.43;9.93;;;5.40;99.90;;;;;;2086229;28;20228;-73
2024/03/01 01:08:13;;;;;;;21.27;10.23;;;5.30;99.90;;;;;;2085829;28;20278;-73
2024/03/01 01:09:14;;;;;;;16.20;8.53;;;5.40;99.90;;;;;;2089082;28;20677;-73
2024/03/01 01:10:15;;;;;;;14.50;8.80;;;5.50;99.90;;;;;;2089654;28;20742;-73
2024/03/01 01:11:16;;;;;;;16.47;8.10;;;5.50;99.90;;;;;;2084518;28;20235;-73
2024/03/01 01:12:17;;;;;;;12.93;8.20;;;5.40;99.90;;;;;;2078158;28;20664;-73
2024/03/01 01:13:17;;;;;;;13.03;7.67;;;5.50;99.90;;;;;;2087007;28;20227;-73
2024/03/01 01:14:18;;;;;;;14.80;9.13;;;5.40;99.90;;;;;;2074326;28;20220;-74
2024/03/01 01:15:19;;;;;;;18.20;10.60;;;5.40;99.90;;;;;;2077863;28;20229;-73
2024/03/01 01:16:19;;;;;;;16.37;9.13;;;5.40;99.90;;;;;;2093650;28;20224;-73
2024/03/01 01:17:20;;;;;;;14.90;8.43;;;5.40;99.90;;;;;;2088333;28;20224;-73
2024/03/01 01:18:21;;;;;;;14.90;8.43;;;5.30;99.90;;;;;;2090990;28;20247;-72
2024/03/01 01:19:21;;;;;;;16.60;8.97;;;5.30;99.90;;;;;;2087464;28;20307;-73
2024/03/01 01:20:22;;;;;;;15.43;9.67;;;5.40;99.90;;;;;;2086966;28;20266;-73
2024/03/01 01:21:23;;;;;;;16.60;8.70;;;5.40;99.90;;;;;;2091678;28;20310;-74
2024/03/01 01:22:25;;;;;;;16.90;8.43;;;5.20;99.90;;;;;;2086548;28;20231;-73
2024/03/01 01:23:25;;;;;;;15.98;8.70;;;5.30;99.90;;;;;;2087949;28;20345;-73
2024/03/01 01:24:26;;;;;;;14.73;8.47;;;5.30;99.90;;;;;;2083106;28;20234;-72
2024/03/01 01:25:27;;;;;;;18.03;9.57;;;5.30;99.90;;;;;;2087691;28;20700;-73
2024/03/01 01:26:28;;;;;;;14.50;8.33;;;5.30;99.90;;;;;;2088979;28;20235;-73
2024/03/01 01:27:30;;;;;;;16.88;7.75;;;5.30;99.90;;;;;;2086930;28;20228;-73
2024/03/01 01:28:30;;;;;;;18.25;9.43;;;5.30;99.90;;;;;;2078601;28;20233;-73
2024/03/01 01:29:31;;;;;;;17.13;9.43;;;5.30;99.90;;;;;;2072068;28;20704;-73
2024/03/01 01:30:32;;;;;;;17.73;8.90;;;5.30;99.90;;;;;;2074788;28;20271;-73
2024/03/01 01:31:32;;;;;;;16.03;9.00;;;5.10;99.90;;;;;;2083871;28;20228;-73
2024/03/01 01:32:33;;;;;;;17.07;9.33;;;5.20;99.90;;;;;;2090998;28;20259;-73
2024/03/01 01:33:34;;;;;;;17.43;8.43;;;5.20;99.90;;;;;;2087445;28;20729;-73
2024/03/01 01:34:35;;;;;;;15.40;7.63;;;5.30;99.90;;;;;;2074760;28;20225;-73
2024/03/01 01:35:35;;;;;;;16.10;8.00;;;5.20;99.90;;;;;;2074940;28;20224;-73
2024/03/01 01:36:36;;;;;;;17.67;9.70;;;5.30;99.90;;;;;;2088466;28;20236;-73
2024/03/01 01:37:37;;;;;;;16.50;8.80;;;5.40;99.90;;;;;;2091342;28;20293;-74
2024/03/01 01:38:38;;;;;;;17.50;8.47;;;5.30;99.90;;;;;;2090047;28;20232;-73
2024/03/01 01:39:38;;;;;;;19.83;8.33;;;5.40;99.90;;;;;;2090783;28;20249;-73
2024/03/01 01:40:40;;;;;;;14.83;7.77;;;5.50;99.90;;;;;;2088562;28;20236;-73
2024/03/01 01:41:41;;;;;;;12.13;7.15;;;5.40;99.90;;;;;;2087894;28;20222;-75
2024/03/01 01:42:41;;;;;;;16.70;9.03;;;5.40;99.90;;;;;;2081286;28;20227;-73
2024/03/01 01:43:43;;;;;;;15.20;8.47;;;5.40;99.90;;;;;;2085358;28;20674;-73
2024/03/01 01:44:44;;;;;;;14.80;7.90;;;5.40;99.90;;;;;;2091350;28;20230;-75
2024/03/01 01:45:45;;;;;;;15.33;7.87;;;5.40;99.90;;;;;;2089395;28;20219;-74
2024/03/01 01:46:49;;;;;;;15.70;8.20;;;5.30;99.90;;;;;;2094284;28;20878;-75
2024/03/01 01:47:49;;;;;;;18.25;9.35;;;5.40;99.90;;;;;;2081101;28;20220;-73
2024/03/01 01:48:50;;;;;;;13.50;7.17;;;5.40;99.90;;;;;;2073915;28;20699;-72
2024/03/01 01:49:51;;;;;;;14.30;6.00;;;5.30;99.90;;;;;;2078227;28;20185;-72
2024/03/01 01:50:52;;;;;;;13.50;7.27;;;5.30;99.90;;;;;;2094603;28;20180;-73
2024/03/01 01:51:53;;;;;;;9.48;6.03;;;5.30;99.90;;;;;;2086358;28;20225;-72
2024/03/01 01:52:55;;;;;;;16.38;7.93;;;5.30;99.90;;;;;;2074254;28;20185;-73
2024/03/01 01:53:56;;;;;;;11.73;7.15;;;5.30;99.90;;;;;;2087242;28;20180;-73
2024/03/01 01:54:57;;;;;;;13.13;7.80;;;5.20;99.90;;;;;;2087008;28;20192;-72
2024/03/01 01:56:00;;;;;;;13.90;8.43;;;5.20;99.90;;;;;;2085511;28;20661;-73
2024/03/01 01:57:00;;;;;;;14.80;8.10;;;5.30;99.90;;;;;;2074121;28;20181;-72
2024/03/01 01:58:01;;;;;;;11.53;7.13;;;5.20;99.90;;;;;;2080950;28;20185;-73
2024/03/01 01:59:03;;;;;;;14.52;7.55;;;5.20;99.90;;;;;;2085123;28;20176;-73
2024/03/01 02:00:06;;;;;;;13.57;7.55;;;5.30;99.90;;;;;;2078084;28;20227;-75
2024/03/01 02:01:08;;;;;;;14.25;8.02;;;5.30;99.90;;;;;;2068439;28;20189;-73
2024/03/01 02:02:09;;;;;;;12.93;6.47;;;5.20;99.90;;;;;;2077205;28;20225;-72
2024/03/01 02:03:10;;;;;;;12.00;6.90;;;5.20;99.90;;;;;;2077060;28;20221;-75
2024/03/01 02:04:11;;;;;;;11.43;7.32;;;5.20;99.90;;;;;;2075704;28;20236;-73
2024/03/01 02:05:12;;;;;;;13.40;6.77;;;5.20;99.90;;;;;;2080519;28;20287;-73
2024/03/01 02:06:12;;;;;;;15.80;7.03;;;5.30;99.90;;;;;;2083390;28;20298;-74
2024/03/01 02:07:13;;;;;;;13.73;6.80;;;5.30;99.90;;;;;;2086156;28;20227;-75
2024/03/01 02:08:14;;;;;;;14.77;8.10;;;5.40;99.90;;;;;;2081824;28;20242;-75
2024/03/01 02:09:18;;;;;;;14.32;7.40;;;5.40;99.90;;;;;;2073665;28;20227;-74
2024/03/01 02:10:19;;;;;;;15.63;7.97;;;5.50;99.90;;;;;;2073347;28;20312;-75
2024/03/01 02:11:20;;;;;;;13.80;8.18;;;5.50;99.90;;;;;;2082866;28;20609;-75
2024/03/01 02:12:21;;;;;;;13.37;7.40;;;5.50;99.90;;;;;;2084869;28;20248;-75
2024/03/01 02:13:22;;;;;;;12.38;6.80;;;5.60;99.90;;;;;;2077347;28;20229;-75
2024/03/01 02:14:23;;;;;;;15.63;7.63;;;5.50;99.90;;;;;;2084951;28;20721;-74
2024/03/01 02:15:25;;;;;;;13.23;8.30;;;5.50;99.90;;;;;;2086485;28;20288;-75
2024/03/01 02:16:26;;;;;;;20.10;8.60;;;5.50;99.90;;;;;;2079452;28;20278;-76
2024/03/01 02:17:27;;;;;;;13.07;8.17;;;5.50;99.90;;;;;;2083270;28;20277;-74
2024/03/01 02:18:27;;;;;;;15.00;7.77;;;5.50;99.90;;;;;;2091058;28;20318;-75
2024/03/01 02:19:28;;;;;;;13.40;7.40;;;5.50;99.90;;;;;;2088518;28;20685;-75
2024/03/01 02:20:31;;;;;;;13.50;7.57;;;5.50;99.90;;;;;;2087748;28;20306;-75
2024/03/01 02:21:38;;;;;;;11.75;7.32;;;5.60;99.90;;;;;;2086968;28;20224;-75
2024/03/01 02:22:39;;;;;;;15.63;8.40;;;5.60;99.90;;;;;;2076915;28;20232;-75
2024/03/01 02:23:40;;;;;;;15.05;7.75;;;5.60;99.90;;;;;;2079136;28;20236;-72
2024/03/01 02:24:41;;;;;;;13.65;7.95;;;5.60;99.90;;;;;;2071764;28;20426;-73
2024/03/01 02:25:41;;;;;;;13.17;8.67;;;5.60;99.90;;;;;;2080564;28;20228;-73
2024/03/01 02:26:42;;;;;;;19.43;8.97;;;5.60;99.90;;;;;;2077621;28;20228;-74
2024/03/01 02:27:47;;;;;;;16.33;8.17;;;5.60;99.90;;;;;;2075322;28;20217;-73
2024/03/01 02:28:48;;;;;;;18.83;8.43;;;5.60;99.90;;;;;;2080510;28;20303;-73
2024/03/01 02:29:49;;;;;;;15.68;7.53;;;5.50;99.90;;;;;;2080801;28;20216;-73
2024/03/01 02:30:51;;;;;;;14.17;8.00;;;5.40;99.90;;;;;;2079292;28;20181;-73
2024/03/01 02:31:52;;;;;;;12.95;7.18;;;5.50;99.90;;;;;;2076463;28;20181;-73
2024/03/01 02:32:53;;;;;;;18.33;7.65;;;5.50;99.90;;;;;;2073236;28;20174;-73
2024/03/01 02:33:54;;;;;;;11.73;7.37;;;5.60;99.90;;;;;;2074378;28;20284;-73
2024/03/01 02:34:54;;;;;;;14.63;8.50;;;5.50;99.90;;;;;;2074025;28;20216;-73
2024/03/01 02:35:55;;;;;;;12.47;6.33;;;5.60;99.90;;;;;;2076116;28;20698;-73
2024/03/01 02:36:56;;;;;;;18.33;8.30;;;5.60;99.90;;;;;;2078764;28;20323;-73
2024/03/01 02:37:56;;;;;;;14.50;8.20;;;5.50;99.90;;;;;;2081409;28;20184;-74
2024/03/01 02:38:57;;;;;;;11.77;7.37;;;5.60;99.90;;;;;;2084142;28;20237;-73
2024/03/01 02:39:58;;;;;;;11.60;7.80;;;5.60;99.90;;;;;;2078470;28;20671;-74
2024/03/01 02:40:59;;;;;;;10.73;7.03;;;5.60;99.90;;;;;;2069420;28;20185;-73
2024/03/01 02:42:00;;;;;;;15.50;7.57;;;5.50;99.90;;;;;;2076197;28;20210;-73
2024/03/01 02:43:00;;;;;;;12.47;7.33;;;5.50;99.90;;;;;;2084890;28;20231;-73
2024/03/01 02:44:01;;;;;;;15.87;8.40;;;5.50;99.90;;;;;;2069884;28;20185;-73
2024/03/01 02:45:03;;;;;;;14.60;8.40;;;5.40;99.90;;;;;;2083246;28;20656;-73
2024/03/01 02:46:04;;;;;;;13.18;7.38;;;5.30;99.90;;;;;;2083327;28;20307;-73
2024/03/01 02:47:05;;;;;;;15.20;7.93;;;5.30;99.90;;;;;;2067639;28;20221;-73
2024/03/01 02:48:05;;;;;;;17.20;8.50;;;5.30;99.90;;;;;;2083310;28;20654;-74
2024/03/01 02:49:06;;;;;;;12.20;7.20;;;5.30;99.90;;;;;;2084367;28;20266;-73
2024/03/01 02:50:08;;;;;;;12.60;6.80;;;5.30;99.90;;;;;;2080111;28;20236;-73
2024/03/01 02:51:08;;;;;;;17.17;7.28;;;5.30;99.90;;;;;;2088528;28;20235;-73
2024/03/01 02:52:09;;;;;;;11.70;6.93;;;5.30;99.90;;;;;;2082986;28;20228;-73
2024/03/01 02:53:10;;;;;;;13.63;6.47;;;5.30;99.90;;;;;;2074706;28;20259;-73
2024/03/01 02:54:10;;;;;;;14.20;7.40;;;5.30;99.90;;;;;;2076135;28;20240;-73
2024/03/01 02:55:19;;;;;;;11.57;6.37;;;5.30;99.90;;;;;;2092003;28;20219;-73
2024/03/01 02:56:20;;;;;;;11.10;6.25;;;5.30;99.90;;;;;;2089012;28;20340;-73
2024/03/01 02:57:22;;;;;;;13.47;6.93;;;5.40;99.90;;;;;;2079974;28;20240;-72
2024/03/01 02:58:23;;;;;;;11.13;6.07;;;5.50;99.90;;;;;;2083127;28;20234;-74
2024/03/01 02:59:23;;;;;;;13.83;7.43;;;5.50;99.90;;;;;;2082968;28;20260;-73
2024/03/01 03:00:24;;;;;;;12.00;7.50;;;5.50;99.90;;;;;;2082537;28;20320;-73
2024/03/01 03:01:25;;;;;;;12.27;6.70;;;5.50;99.90;;;;;;2079518;28;20239;-73
2024/03/01 03:02:26;;;;;;;10.83;7.40;;;5.60;99.90;;;;;;2081803;28;20236;-73
2024/03/01 03:03:27;;;;;;;13.20;7.32;;;5.50;99.90;;;;;;2086697;28;20658;-73
2024/03/01 03:04:27;;;;;;;12.93;6.83;;;5.50;99.90;;;;;;2094198;28;20231;-73
2024/03/01 03:05:28;;;;;;;13.90;7.37;;;5.50;99.90;;;;;;2094442;28;20238;-74
2024/03/01 03:06:29;;;;;;;13.30;7.47;;;5.60;99.90;;;;;;2089853;28;20313;-74
2024/03/01 03:07:29;;;;;;;11.83;5.57;;;5.50;99.90;;;;;;2088648;28;20239;-74
2024/03/01 03:08:30;;;;;;;10.73;5.97;;;5.50;99.90;;;;;;2081445;28;20228;-73
2024/03/01 03:09:31;;;;;;;12.03;6.37;;;5.60;99.90;;;;;;2080288;28;20229;-74
2024/03/01 03:10:32;;;;;;;12.27;7.00;;;5.70;99.90;;;;;;2078395;28;20317;-74
2024/03/01 03:11:32;;;;;;;11.48;6.57;;;5.70;99.90;;;;;;2079645;28;20264;-74
2024/03/01 03:12:33;;;;;;;13.27;6.83;;;5.80;99.90;;;;;;2088462;28;20227;-74
2024/03/01 03:13:34;;;;;;;14.50;7.20;;;5.80;99.90;;;;;;2087719;28;20548;-73
2024/03/01 03:14:35;;;;;;;12.57;6.63;;;5.80;99.90;;;;;;2079922;28;20225;-73
2024/03/01 03:15:35;;;;;;;14.47;7.43;;;5.80;99.90;;;;;;2075652;28;20233;-74
2024/03/01 03:16:36;;;;;;;10.33;6.47;;;5.90;99.90;;;;;;2075114;28;20609;-74
2024/03/01 03:17:37;;;;;;;13.50;6.50;;;5.90;99.90;;;;;;2079677;28;20237;-74
2024/03/01 03:18:38;;;;;;;14.02;6.78;;;5.90;99.90;;;;;;2074033;28;20264;-74
2024/03/01 03:19:39;;;;;;;12.63;6.47;;;5.90;99.90;;;;;;2088317;28;20262;-74
2024/03/01 03:20:40;;;;;;;11.63;6.67;;;5.90;99.90;;;;;;2085818;28;20233;-75
2024/03/01 03:21:41;;;;;;;14.27;6.95;;;5.80;99.90;;;;;;2087275;28;20701;-74
2024/03/01 03:22:44;;;;;;;9.10;5.47;;;5.80;99.90;;;;;;2090032;28;20231;-75
2024/03/01 03:23:45;;;;;;;12.00;5.57;;;5.80;99.90;;;;;;2094063;28;20231;-74
2024/03/01 03:24:46;;;;;;;11.20;5.97;;;5.80;99.90;;;;;;2088640;28;20720;-74
2024/03/01 03:25:47;;;;;;;13.37;6.80;;;5.80;99.90;;;;;;2088530;28;20522;-74
2024/03/01 03:26:48;;;;;;;11.10;6.60;;;5.80;99.90;;;;;;2080900;28;20441;-73
2024/03/01 03:27:48;;;;;;;9.97;5.67;;;5.80;99.90;;;;;;2091200;28;20179;-74
2024/03/01 03:28:49;;;;;;;9.27;5.47;;;5.70;99.90;;;;;;2094650;28;20204;-74
2024/03/01 03:29:49;;;;;;;11.60;6.60;;;5.80;99.90;;;;;;2094810;28;20684;-74
2024/03/01 03:30:50;;;;;;;14.17;7.20;;;5.90;99.90;;;;;;2094346;28;20282;-74
2024/03/01 03:31:51;;;;;;;12.13;6.27;;;5.80;99.90;;;;;;2085954;28;20272;-74
2024/03/01 03:32:52;;;;;;;15.30;6.40;;;5.90;99.90;;;;;;2074010;28;20666;-74
2024/03/01 03:33:53;;;;;;;11.27;6.37;;;5.90;99.90;;;;;;2091301;28;20203;-74
2024/03/01 03:34:53;;;;;;;11.27;6.00;;;6.00;99.90;;;;;;2090259;28;20809;-74
2024/03/01 03:35:54;;;;;;;13.27;7.50;;;5.90;99.90;;;;;;2091005;28;20212;-74
2024/03/01 03:36:56;;;;;;;13.83;7.83;;;5.90;99.90;;;;;;2093732;28;20198;-74
2024/03/01 03:37:56;;;;;;;10.75;6.68;;;5.70;99.90;;;;;;2091345;28;20183;-74
2024/03/01 03:38:57;;;;;;;13.33;7.60;;;5.60;99.90;;;;;;2095234;28;20200;-74
2024/03/01 03:39:58;;;;;;;13.90;8.17;;;5.50;99.90;;;;;;2094607;28;20274;-73
2024/03/01 03:40:58;;;;;;;14.27;7.60;;;5.50;99.90;;;;;;2090033;28;20198;-74
2024/03/01 03:41:59;;;;;;;15.70;7.03;;;5.50;99.90;;;;;;2088339;28;20187;-74
2024/03/01 03:43:00;;;;;;;13.80;6.43;;;5.50;99.90;;;;;;2088440;28;20184;-74
2024/03/01 03:44:01;;;;;;;15.43;8.03;;;5.50;99.90;;;;;;2080102;28;20678;-74
2024/03/01 03:45:01;;;;;;;13.30;8.07;;;5.60;99.90;;;;;;2077055;28;20181;-73
2024/03/01 03:46:02;;;;;;;14.80;7.90;;;5.60;99.90;;;;;;2083543;28;20440;-73
2024/03/01 03:47:03;;;;;;;15.33;8.27;;;5.70;99.90;;;;;;2087978;28;20185;-74
2024/03/01 03:48:05;;;;;;;12.52;7.85;;;5.80;99.90;;;;;;2086905;28;20258;-74
2024/03/01 03:49:07;;;;;;;13.98;7.47;;;5.80;99.90;;;;;;2079962;28;20189;-73
2024/03/01 03:50:09;;;;;;;14.50;7.43;;;5.70;99.90;;;;;;2083253;28;20646;-73
2024/03/01 03:51:09;;;;;;;14.73;6.95;;;5.80;99.90;;;;;;2085734;28;20758;-73
2024/03/01 03:52:10;;;;;;;13.03;7.07;;;5.80;99.90;;;;;;2083665;28;20228;-73
2024/03/01 03:53:10;;;;;;;13.57;7.37;;;5.90;99.90;;;;;;2077712;28;20227;-74
2024/03/01 03:54:15;;;;;;;12.70;6.97;;;5.90;99.90;;;;;;2085022;28;20216;-74
2024/03/01 03:55:16;;;;;;;12.13;8.00;;;5.90;99.90;;;;;;2090013;28;20228;-74
2024/03/01 03:56:17;;;;;;;15.47;7.90;;;5.90;99.90;;;;;;2090040;28;20648;-73
2024/03/01 03:57:17;;;;;;;16.40;7.43;;;5.80;99.90;;;;;;2085634;28;20290;-74
2024/03/01 03:58:18;;;;;;;15.80;8.13;;;5.90;99.90;;;;;;2077976;28;20763;-73
2024/03/01 03:59:19;;;;;;;17.40;8.10;;;5.80;99.90;;;;;;2082339;28;20225;-73
2024/03/01 04:00:20;;;;;;;15.10;7.03;;;5.80;99.90;;;;;;2078033;28;20241;-73
2024/03/01 04:01:21;;;;;;;10.87;6.53;;;5.70;99.90;;;;;;2077824;28;20225;-73
2024/03/01 04:02:22;;;;;;;10.40;5.95;;;5.70;99.90;;;;;;2088229;28;20231;-73
2024/03/01 04:03:23;;;;;;;14.13;7.33;;;5.70;99.90;;;;;;2087637;28;20228;-74
2024/03/01 04:04:24;;;;;;;13.10;7.28;;;5.80;99.90;;;;;;2087620;28;20307;-74
2024/03/01 04:05:25;;;;;;;14.25;6.82;;;5.70;99.90;;;;;;2079403;28;20711;-73
2024/03/01 04:06:26;;;;;;;15.70;7.33;;;5.70;99.90;;;;;;2083760;28;20294;-73
2024/03/01 04:07:29;;;;;;;12.37;6.63;;;5.80;99.90;;;;;;2083050;28;20850;-73
2024/03/01 04:08:29;;;;;;;12.80;6.65;;;5.70;99.90;;;;;;2086570;28;20236;-74
2024/03/01 04:09:30;;;;;;;8.87;6.47;;;5.70;99.90;;;;;;2089866;28;20891;-74
2024/03/01 04:10:33;;;;;;;12.23;7.33;;;5.70;99.90;;;;;;2088565;28;20386;-73
2024/03/01 04:11:34;;;;;;;10.50;6.10;;;5.80;99.90;;;;;;2090038;28;20286;-74
2024/03/01 04:12:36;;;;;;;11.33;6.43;;;5.90;99.90;;;;;;2091033;28;20636;-73
2024/03/01 04:13:37;;;;;;;12.88;6.45;;;5.80;99.90;;;;;;2081211;28;20274;-73
2024/03/01 04:14:38;;;;;;;15.38;7.78;;;5.70;99.90;;;;;;2085010;28;20340;-73
2024/03/01 04:15:38;;;;;;;12.70;7.50;;;5.70;99.90;;;;;;2092728;28;20240;-74
2024/03/01 04:16:39;;;;;;;11.90;6.13;;;5.70;99.90;;;;;;2087203;28;20754;-73
2024/03/01 04:17:40;;;;;;;12.37;7.40;;;5.70;99.90;;;;;;2075312;28;20264;-73
2024/03/01 04:18:41;;;;;;;12.55;8.15;;;5.70;99.90;;;;;;2081243;28;20243;-73
2024/03/01 04:19:42;;;;;;;17.87;7.57;;;5.70;99.90;;;;;;2081811;28;20236;-73
2024/03/01 04:20:44;;;;;;;16.37;8.77;;;5.60;99.90;;;;;;2089292;28;20286;-74
2024/03/01 04:21:44;;;;;;;10.73;5.35;;;5.70;99.90;;;;;;2089923;28;20230;-74
2024/03/01 04:22:45;;;;;;;9.93;5.93;;;5.60;99.90;;;;;;2086448;28;20243;-74
2024/03/01 04:23:46;;;;;;;11.27;7.23;;;5.60;99.90;;;;;;2087885;28;20223;-76
2024/03/01 04:24:49;;;;;;;8.85;5.15;;;5.70;99.90;;;;;;2086954;28;20227;-75
2024/03/01 04:25:51;;;;;;;12.05;6.53;;;5.70;99.90;;;;;;2087947;28;20188;-75
2024/03/01 04:26:53;;;;;;;9.77;5.63;;;5.70;99.90;;;;;;2085526;28;20208;-74
2024/03/01 04:27:54;;;;;;;13.93;6.70;;;5.70;99.90;;;;;;2067034;28;20682;-75
2024/03/01 04:28:54;;;;;;;15.33;5.47;;;5.70;99.90;;;;;;2080808;28;20207;-76
2024/03/01 04:29:55;;;;;;;8.60;4.97;;;5.70;99.90;;;;;;2097670;28;20205;-75
2024/03/01 04:30:56;;;;;;;8.67;4.67;;;5.60;99.90;;;;;;2091255;28;20656;-75
2024/03/01 04:31:56;;;;;;;8.67;4.67;;;5.70;99.90;;;;;;2081411;28;20184;-75
2024/03/01 04:32:57;;;;;;;6.27;3.47;;;5.70;99.90;;;;;;2075812;28;20655;-75
2024/03/01 04:33:58;;;;;;;6.33;4.07;;;5.80;99.90;;;;;;2086998;28;20207;-75
2024/03/01 04:34:58;;;;;;;5.67;3.33;;;5.90;97.70;;;;;;2092016;28;20212;-75
2024/03/01 04:35:59;;;;;;;5.83;3.23;;;5.90;96.40;;;;;;2089890;28;20219;-75
2024/03/01 04:37:00;;;;;;;5.90;3.27;;;5.90;95.50;;;;;;2080916;28;20195;-75
2024/03/01 04:38:01;;;;;;;5.07;2.80;;;5.90;96.10;;;;;;2081579;28;20296;-76
2024/03/01 04:39:03;;;;;;;5.30;3.10;;;6.00;95.90;;;;;;2089373;28;20210;-74
2024/03/01 04:40:05;;;;;;;4.63;2.78;;;6.00;95.60;;;;;;2091109;28;20789;-75
2024/03/01 04:41:06;;;;;;;6.32;3.40;;;6.10;96.20;;;;;;2094746;28;20266;-75
2024/03/01 04:42:08;;;;;;;4.63;3.07;;;6.10;96.30;;;;;;2083604;28;20188;-75
2024/03/01 04:43:09;;;;;;;6.07;2.97;;;6.10;96.80;;;;;;2075309;28;20286;-75
2024/03/01 04:44:09;;;;;;;5.37;2.90;;;6.10;96.90;;;;;;2069276;28;20237;-74
2024/03/01 04:45:10;;;;;;;8.03;4.20;;;6.20;97.30;;;;;;2085301;28;20235;-74
2024/03/01 04:46:11;;;;;;;7.50;4.47;;;6.20;98.30;;;;;;2091448;28;20251;-74
2024/03/01 04:47:11;;;;;;;12.63;6.60;;;6.20;99.00;;;;;;2080514;28;20224;-75
2024/03/01 04:48:12;;;;;;;10.13;6.30;;;6.20;99.90;;;;;;2077540;28;20228;-75
2024/03/01 04:49:13;;;;;;;9.97;5.97;;;6.20;99.90;;;;;;2085640;28;20248;-75
2024/03/01 04:50:14;;;;;;;10.97;5.30;;;6.10;99.90;;;;;;2089430;28;20307;-74
2024/03/01 04:51:15;;;;;;;7.97;4.78;;;6.00;99.90;;;;;;2074071;28;20260;-75
2024/03/01 04:52:16;;;;;;;6.22;4.07;;;5.90;99.90;;;;;;2068354;28;20718;-74
2024/03/01 04:53:18;;;;;;;7.07;4.63;;;5.90;99.90;;;;;;2077235;28;20216;-74
2024/03/01 04:54:19;;;;;;;14.27;6.00;;;5.80;99.90;;;;;;2081996;28;20252;-74
2024/03/01 04:55:19;;;;;;;9.33;5.60;;;5.90;99.90;;;;;;2084967;28;20240;-74
2024/03/01 04:56:20;;;;;;;8.17;5.67;;;5.90;99.90;;;;;;2073260;28;20231;-75
2024/03/01 04:57:21;;;;;;;8.70;5.03;;;6.00;99.90;;;;;;2072006;28;20267;-75
2024/03/01 04:58:21;;;;;;;7.30;4.37;;;6.00;99.90;;;;;;2083773;28;20313;-74
2024/03/01 04:59:22;;;;;;;6.13;3.83;;;6.00;99.90;;;;;;2075351;28;20261;-75
2024/03/01 05:00:24;;;;;;;6.90;2.97;;;6.10;99.90;;;;;;2089458;28;20220;-74
2024/03/01 05:01:24;;;;;;;5.70;3.80;;;6.10;99.90;;;;;;2090424;28;20219;-75
2024/03/01 05:02:25;;;;;;;5.17;3.30;;;6.10;99.90;;;;;;2087342;28;20787;-75
2024/03/01 05:03:30;;;;;;;7.10;3.23;;;6.20;99.90;;;;;;2087501;28;20227;-75
2024/03/01 05:04:31;;;;;;;6.30;4.15;;;6.10;99.90;;;;;;2087267;28;20791;-75
2024/03/01 05:05:31;;;;;;;15.17;4.57;;;6.10;99.90;;;;;;2077790;28;20228;-74
2024/03/01 05:06:32;;;;;;;9.67;6.27;;;6.10;99.90;;;;;;2086524;28;20606;-75
2024/03/01 05:07:33;;;;;;;9.93;4.83;;;6.10;99.90;;;;;;2085360;28;20224;-75
2024/03/01 05:08:34;;;;;;;9.10;5.10;;;6.10;99.90;;;;;;2074917;28;20252;-75
2024/03/01 05:09:34;;;;;;;8.27;5.47;;;6.00;99.90;;;;;;2083907;28;20228;-75
2024/03/01 05:10:35;;;;;;;8.63;4.93;;;6.10;99.90;;;;;;2091398;28;20259;-75
2024/03/01 05:11:36;;;;;;;9.57;6.03;;;6.10;99.90;;;;;;2087470;28;20315;-75
2024/03/01 05:12:41;;;;;;;10.90;7.10;;;6.10;99.90;;;;;;2086655;28;20220;-75
2024/03/01 05:13:42;;;;;;;10.57;6.55;;;6.10;99.90;;;;;;2084541;28;20311;-74
2024/03/01 05:14:42;;;;;;;13.63;8.73;;;6.00;99.90;;;;;;2086877;28;20228;-75
2024/03/01 05:15:43;;;;;;;18.43;14.33;;;6.00;99.90;;;;;;2080575;28;20227;-74
2024/03/01 05:16:44;;;;;;;20.30;14.33;;;5.90;99.90;;;;;;2074795;28;20308;-75
2024/03/01 05:17:45;;;;;;;18.03;13.40;;;5.90;99.90;;;;;;2086234;28;20832;-75